Time;durP1;ratioP1;P1;durP2;ratioP2;P2;SDS_P1;SDS_P2;PMS_P1;PMS_P2;Temp;Humidity;BMP_temperature;BMP_pressure;BME280_temperature;BME280_humidity;BME280_pressure;Samples;Min_cycle;Max_cycle;Signal;HPM_P1;HPM_P2
2022/05/05 00:01:04;;;;;;;11.57;8.70;;;14.20;99.90;;;;;;5049970;28;20678;-77
2022/05/05 00:03:31;;;;;;;8.75;7.85;;;14.20;99.90;;;;;;5050610;28;20206;-76
2022/05/05 00:05:58;;;;;;;11.75;9.40;;;14.10;99.90;;;;;;5050381;28;20209;-77
2022/05/05 00:08:25;;;;;;;11.88;8.43;;;14.10;99.90;;;;;;5050632;28;20207;-77
2022/05/05 00:16:22;;;;;;;9.73;8.73;;;14.00;99.90;;;;;;5054106;28;20221;-76
2022/05/05 00:18:49;;;;;;;9.88;8.98;;;14.10;99.90;;;;;;5054412;28;20234;-76
2022/05/05 00:21:16;;;;;;;11.52;9.70;;;14.10;99.90;;;;;;5053880;28;20278;-77
2022/05/05 00:23:43;;;;;;;10.07;9.13;;;14.10;99.90;;;;;;5054246;28;20202;-78
2022/05/05 00:26:10;;;;;;;9.45;8.48;;;14.00;99.90;;;;;;5053780;28;20206;-77
2022/05/05 00:28:38;;;;;;;10.05;9.05;;;13.90;99.90;;;;;;5053924;28;20199;-76
2022/05/05 00:31:05;;;;;;;10.32;9.32;;;13.80;99.90;;;;;;5053687;28;20207;-76
2022/05/05 00:33:32;;;;;;;9.65;8.75;;;13.70;99.90;;;;;;5053842;28;20207;-76
2022/05/05 00:35:59;;;;;;;9.40;8.40;;;13.60;99.90;;;;;;5053500;28;20735;-75
2022/05/05 00:38:26;;;;;;;13.20;8.15;;;13.50;99.90;;;;;;5053970;28;20717;-76
2022/05/05 00:40:53;;;;;;;9.63;8.63;;;13.50;99.90;;;;;;5054071;28;20211;-76
2022/05/05 00:43:20;;;;;;;9.55;7.95;;;13.50;99.90;;;;;;5053232;28;20724;-76
2022/05/05 00:45:48;;;;;;;13.73;8.77;;;13.50;99.90;;;;;;5053731;28;20206;-75
2022/05/05 00:48:17;;;;;;;9.73;8.73;;;13.50;99.90;;;;;;5053384;28;20240;-76
2022/05/05 00:50:44;;;;;;;10.45;8.80;;;13.40;99.90;;;;;;5053599;28;20739;-75
2022/05/05 00:53:11;;;;;;;9.38;8.45;;;13.40;99.90;;;;;;5053135;28;20249;-75
2022/05/05 00:55:40;;;;;;;9.75;8.75;;;13.40;99.90;;;;;;5053593;28;20203;-75
2022/05/05 00:58:07;;;;;;;9.43;7.80;;;13.30;99.90;;;;;;5052544;28;20230;-75
2022/05/05 01:00:35;;;;;;;9.18;8.27;;;13.30;99.90;;;;;;5053407;28;20756;-78
2022/05/05 01:03:03;;;;;;;9.45;8.45;;;13.20;99.90;;;;;;5053010;28;20674;-76
2022/05/05 01:05:32;;;;;;;10.00;8.95;;;13.30;99.90;;;;;;5053288;28;20199;-74
2022/05/05 01:07:59;;;;;;;8.40;7.60;;;13.30;99.90;;;;;;5052936;28;20202;-74
2022/05/05 01:10:27;;;;;;;8.23;7.38;;;13.20;99.90;;;;;;5053392;28;20280;-73
2022/05/05 01:12:54;;;;;;;10.63;6.28;;;13.40;99.90;;;;;;5053548;28;20264;-74
2022/05/05 01:15:22;;;;;;;8.35;6.05;;;13.40;99.90;;;;;;5053250;28;20297;-74
2022/05/05 01:17:49;;;;;;;5.97;5.47;;;13.40;99.90;;;;;;5053072;28;20698;-74
2022/05/05 01:20:19;;;;;;;5.85;5.13;;;13.40;99.90;;;;;;5052688;28;21124;-73
2022/05/05 01:22:47;;;;;;;6.35;4.60;;;13.30;99.90;;;;;;5052974;28;20207;-74
2022/05/05 01:28:14;;;;;;;4.70;3.78;;;13.20;99.90;;;;;;5052474;28;20214;-74
2022/05/05 01:30:42;;;;;;;6.90;4.00;;;13.10;99.90;;;;;;5052825;28;20202;-75
2022/05/05 01:33:14;;;;;;;7.70;4.57;;;13.10;99.90;;;;;;5052321;28;20234;-74
2022/05/05 01:35:41;;;;;;;7.53;5.18;;;13.10;99.90;;;;;;5052699;28;20290;-75
2022/05/05 01:38:12;;;;;;;4.80;4.40;;;13.00;99.90;;;;;;5052066;28;20238;-75
2022/05/05 01:40:39;;;;;;;4.38;3.97;;;13.10;99.90;;;;;;5052475;28;20276;-74
2022/05/05 01:43:07;;;;;;;6.25;4.82;;;13.00;99.90;;;;;;5052238;28;20678;-76
2022/05/05 01:45:35;;;;;;;5.50;4.43;;;13.00;99.90;;;;;;5052539;28;20211;-76
2022/05/05 01:48:02;;;;;;;4.57;3.60;;;12.90;99.90;;;;;;5052284;28;20268;-75
2022/05/05 01:50:30;;;;;;;4.70;4.30;;;12.80;99.90;;;;;;5052482;28;20678;-76
2022/05/05 01:52:58;;;;;;;7.50;4.07;;;12.90;99.90;;;;;;5052723;28;20272;-76
2022/05/05 01:55:27;;;;;;;8.77;4.70;;;13.00;99.90;;;;;;5052552;28;20737;-74
2022/05/05 01:57:54;;;;;;;4.32;3.90;;;13.00;99.90;;;;;;5052597;28;20227;-76
2022/05/05 02:00:21;;;;;;;5.63;4.15;;;12.90;99.90;;;;;;5052082;28;20207;-76
2022/05/05 02:02:49;;;;;;;4.35;3.95;;;12.90;99.90;;;;;;5052285;28;20206;-75
2022/05/05 02:05:17;;;;;;;3.08;2.78;;;12.80;99.90;;;;;;5052061;28;20202;-75
2022/05/05 02:07:45;;;;;;;3.10;2.78;;;12.70;99.90;;;;;;5052345;28;20297;-75
2022/05/05 02:10:14;;;;;;;3.95;2.60;;;12.70;99.90;;;;;;5051557;28;20285;-74
2022/05/05 02:12:43;;;;;;;2.83;2.63;;;12.70;99.90;;;;;;5052100;28;20209;-76
2022/05/05 02:15:11;;;;;;;2.85;2.65;;;12.60;99.90;;;;;;5051577;28;20265;-76
2022/05/05 02:17:41;;;;;;;2.95;2.72;;;12.60;99.90;;;;;;5051901;28;20231;-76
2022/05/05 02:20:11;;;;;;;3.63;3.30;;;12.60;99.90;;;;;;5051489;28;20260;-75
2022/05/05 02:22:38;;;;;;;3.60;2.78;;;12.60;99.90;;;;;;5051697;28;20210;-73
2022/05/05 02:25:06;;;;;;;4.15;3.30;;;12.50;99.90;;;;;;5051185;28;20206;-73
2022/05/05 02:27:50;;;;;;;2.80;2.60;;;12.40;99.90;;;;;;5051743;28;20257;-74
2022/05/05 02:30:18;;;;;;;3.58;3.28;;;12.40;99.90;;;;;;5051246;28;20214;-73
2022/05/05 02:32:45;;;;;;;6.07;2.95;;;12.30;99.90;;;;;;5051620;28;20207;-72
2022/05/05 02:35:12;;;;;;;2.88;2.67;;;12.40;99.90;;;;;;5051232;28;20207;-74
2022/05/05 02:40:24;;;;;;;2.85;2.28;;;12.30;99.90;;;;;;5051747;28;20209;-74
2022/05/05 02:42:55;;;;;;;2.85;2.65;;;12.20;99.90;;;;;;5052010;28;20203;-74
2022/05/05 02:45:22;;;;;;;3.03;2.70;;;12.30;99.90;;;;;;5051128;28;20207;-74
2022/05/05 02:47:49;;;;;;;3.58;3.28;;;12.30;99.90;;;;;;5051533;28;20268;-73
2022/05/05 02:50:17;;;;;;;2.28;2.00;;;12.30;99.90;;;;;;5050974;28;20233;-76
2022/05/05 02:52:43;;;;;;;3.20;2.22;;;12.40;99.90;;;;;;5051067;28;20207;-75
2022/05/05 02:55:10;;;;;;;2.50;2.30;;;12.40;99.90;;;;;;5051142;28;20260;-74
2022/05/05 02:57:37;;;;;;;4.25;2.50;;;12.40;99.90;;;;;;5051249;28;20226;-75
2022/05/05 03:00:10;;;;;;;2.20;2.00;;;12.40;99.90;;;;;;5050846;28;20261;-75
2022/05/05 03:02:38;;;;;;;7.90;2.45;;;12.30;99.90;;;;;;5051155;28;20234;-76
2022/05/05 03:05:06;;;;;;;2.40;2.20;;;12.30;99.90;;;;;;5050703;28;20633;-75
2022/05/05 03:07:34;;;;;;;5.10;2.15;;;12.30;99.90;;;;;;5051066;28;20207;-75
2022/05/05 03:10:01;;;;;;;3.15;2.80;;;12.20;99.90;;;;;;5050770;28;20200;-75
2022/05/05 03:12:28;;;;;;;3.08;2.40;;;12.30;99.90;;;;;;5051222;28;20620;-76
2022/05/05 03:14:55;;;;;;;3.15;2.63;;;12.20;99.90;;;;;;5051363;28;20203;-76
2022/05/05 03:17:23;;;;;;;6.65;2.10;;;12.00;99.90;;;;;;5050941;28;20203;-76
2022/05/05 03:19:50;;;;;;;2.60;2.30;;;12.00;99.90;;;;;;5051045;28;20315;-74
2022/05/05 03:22:17;;;;;;;3.55;3.25;;;12.00;99.90;;;;;;5050375;28;20210;-74
2022/05/05 03:24:44;;;;;;;3.15;2.85;;;12.00;99.90;;;;;;5051112;28;20202;-74
2022/05/05 03:27:11;;;;;;;3.10;2.80;;;12.00;99.90;;;;;;5050530;28;20207;-74
2022/05/05 03:29:38;;;;;;;3.30;2.63;;;12.00;99.90;;;;;;5051018;28;20207;-74
2022/05/05 03:32:05;;;;;;;3.85;2.88;;;12.00;99.90;;;;;;5050385;28;20587;-75
2022/05/05 03:34:34;;;;;;;4.22;3.83;;;12.00;99.90;;;;;;5050793;28;20207;-76
2022/05/05 03:37:01;;;;;;;3.25;2.75;;;11.90;99.90;;;;;;5050181;28;20210;-74
2022/05/05 03:39:28;;;;;;;4.45;3.47;;;11.80;99.90;;;;;;5050490;28;20662;-75
2022/05/05 03:41:55;;;;;;;3.92;3.25;;;11.90;99.90;;;;;;5051004;28;20720;-75
2022/05/05 03:44:22;;;;;;;4.57;4.18;;;11.90;99.90;;;;;;5050460;28;20289;-75
2022/05/05 03:46:49;;;;;;;5.43;3.70;;;11.80;99.90;;;;;;5050711;28;20256;-75
2022/05/05 03:49:16;;;;;;;4.30;3.90;;;12.00;99.90;;;;;;5050923;28;20249;-74
2022/05/05 03:51:45;;;;;;;5.07;3.67;;;11.90;99.90;;;;;;5065971;28;20198;-75
2022/05/05 03:54:12;;;;;;;5.20;3.88;;;11.90;99.90;;;;;;5060332;28;20653;-74
2022/05/05 03:56:40;;;;;;;5.80;4.95;;;12.00;99.90;;;;;;5054766;28;20207;-74
2022/05/05 03:59:09;;;;;;;4.47;4.07;;;11.90;99.90;;;;;;5073588;28;20270;-75
2022/05/05 04:01:37;;;;;;;6.15;4.53;;;12.00;99.90;;;;;;5074087;28;20241;-74
2022/05/05 04:04:04;;;;;;;6.13;4.32;;;12.00;99.90;;;;;;5074129;28;20202;-75
2022/05/05 04:06:32;;;;;;;7.00;4.95;;;12.00;99.90;;;;;;5073830;28;20224;-75
2022/05/05 04:09:03;;;;;;;8.30;5.97;;;12.00;99.90;;;;;;5072113;28;20623;-74
2022/05/05 04:11:30;;;;;;;7.47;5.22;;;12.10;99.90;;;;;;5067840;28;20668;-75
2022/05/05 04:13:58;;;;;;;9.43;5.55;;;12.10;99.90;;;;;;5074025;28;20296;-76
2022/05/05 04:16:25;;;;;;;7.18;5.97;;;12.10;99.90;;;;;;5074025;28;20629;-75
2022/05/05 04:18:51;;;;;;;6.80;6.10;;;12.10;99.90;;;;;;5060390;28;20238;-75
2022/05/05 04:21:19;;;;;;;8.25;5.47;;;12.20;99.90;;;;;;5073412;28;20267;-75
2022/05/05 04:23:45;;;;;;;9.43;5.82;;;12.20;99.90;;;;;;5073656;28;20206;-76
2022/05/05 04:26:16;;;;;;;6.00;5.22;;;12.20;99.90;;;;;;5073188;28;20207;-75
2022/05/05 04:28:45;;;;;;;8.13;5.93;;;12.20;99.90;;;;;;5073572;28;20237;-75
2022/05/05 04:31:14;;;;;;;5.90;5.30;;;12.20;99.90;;;;;;5073508;28;20202;-75
2022/05/05 04:33:42;;;;;;;6.85;6.07;;;12.20;99.90;;;;;;5073128;28;20252;-75
2022/05/05 04:36:10;;;;;;;6.80;6.10;;;12.20;99.90;;;;;;5073188;28;20553;-75
2022/05/05 04:38:37;;;;;;;7.75;6.22;;;12.30;99.90;;;;;;5073175;28;20222;-74
2022/05/05 04:41:04;;;;;;;6.82;6.05;;;12.20;99.90;;;;;;5072919;28;20256;-73
2022/05/05 04:43:33;;;;;;;6.43;5.75;;;12.30;99.90;;;;;;5073173;28;20236;-72
2022/05/05 04:46:00;;;;;;;6.95;6.25;;;12.30;99.90;;;;;;5067102;28;20203;-73
2022/05/05 04:48:27;;;;;;;6.85;6.20;;;12.40;99.90;;;;;;5068327;28;20213;-76
2022/05/05 04:50:54;;;;;;;8.90;6.35;;;12.50;99.90;;;;;;5073584;28;20564;-75
2022/05/05 04:53:21;;;;;;;7.97;6.60;;;12.50;99.90;;;;;;5072973;28;20202;-75
2022/05/05 04:55:48;;;;;;;7.07;6.38;;;12.50;99.90;;;;;;5073442;28;20198;-75
2022/05/05 04:58:15;;;;;;;7.85;6.43;;;12.40;99.90;;;;;;5072279;28;20210;-76
2022/05/05 05:00:45;;;;;;;11.32;6.30;;;12.30;99.90;;;;;;5072574;28;20263;-78
2022/05/05 05:03:32;;;;;;;7.68;6.45;;;12.40;99.90;;;;;;5072395;28;20251;-75
2022/05/05 05:05:59;;;;;;;6.25;5.38;;;12.30;99.90;;;;;;5072673;28;20208;-75
2022/05/05 05:08:26;;;;;;;5.60;5.10;;;12.40;99.90;;;;;;5073218;28;20218;-75
2022/05/05 05:10:53;;;;;;;11.10;6.07;;;12.40;99.90;;;;;;5072916;28;20206;-74
2022/05/05 05:13:20;;;;;;;7.40;6.13;;;12.30;99.90;;;;;;5072708;28;20252;-75
2022/05/05 05:15:49;;;;;;;6.82;5.72;;;12.40;99.90;;;;;;5072958;28;20210;-75
2022/05/05 05:18:15;;;;;;;9.88;7.55;;;12.40;99.90;;;;;;5072102;28;20631;-75
2022/05/05 05:20:42;;;;;;;8.13;6.70;;;12.40;99.90;;;;;;5072577;28;20206;-75
2022/05/05 05:23:10;;;;;;;8.32;6.28;;;12.50;99.90;;;;;;5072324;28;20670;-75
2022/05/05 05:25:36;;;;;;;8.20;6.05;;;12.40;99.90;;;;;;5072397;28;20237;-75
2022/05/05 05:28:04;;;;;;;6.47;5.75;;;12.60;99.90;;;;;;5072171;28;20259;-74
2022/05/05 05:30:31;;;;;;;7.00;6.30;;;12.50;99.90;;;;;;5072522;28;20267;-74
2022/05/05 05:33:00;;;;;;;8.95;6.13;;;12.50;99.90;;;;;;5071959;28;20202;-75
2022/05/05 05:35:27;;;;;;;8.15;6.07;;;12.50;99.90;;;;;;5072204;28;20267;-74
2022/05/05 05:37:54;;;;;;;8.85;6.35;;;12.60;99.90;;;;;;5072607;28;20267;-73
2022/05/05 05:40:22;;;;;;;10.02;7.68;;;12.50;99.90;;;;;;5071739;28;20284;-74
2022/05/05 05:42:49;;;;;;;8.20;6.18;;;12.60;99.90;;;;;;5072231;28;20252;-74
2022/05/05 05:45:16;;;;;;;10.05;6.40;;;12.60;99.90;;;;;;5071891;28;20248;-75
2022/05/05 05:47:43;;;;;;;10.65;6.82;;;12.60;99.90;;;;;;5058058;28;20735;-74
2022/05/05 05:50:12;;;;;;;7.65;6.90;;;12.50;99.90;;;;;;5071939;28;20210;-73
2022/05/05 05:52:41;;;;;;;9.77;6.78;;;12.50;99.90;;;;;;5071944;28;20251;-76
2022/05/05 05:55:09;;;;;;;7.65;6.85;;;12.50;99.90;;;;;;5071684;28;20661;-75
2022/05/05 05:57:35;;;;;;;6.68;5.90;;;12.60;99.90;;;;;;5071787;28;20259;-74
2022/05/05 06:00:04;;;;;;;8.73;6.25;;;12.60;99.90;;;;;;5071472;28;20225;-76
2022/05/05 06:05:17;;;;;;;7.43;6.72;;;12.70;99.90;;;;;;5071552;28;20205;-76
2022/05/05 06:07:44;;;;;;;8.80;7.13;;;12.70;99.90;;;;;;5071899;28;20272;-76
2022/05/05 06:10:11;;;;;;;7.85;5.70;;;12.80;99.90;;;;;;5071249;28;20210;-75
2022/05/05 06:12:38;;;;;;;7.63;6.75;;;12.70;99.90;;;;;;5070913;28;20203;-74
2022/05/05 06:15:06;;;;;;;8.95;6.32;;;12.80;99.90;;;;;;5071031;28;20670;-75
2022/05/05 06:17:34;;;;;;;9.05;6.45;;;12.80;99.90;;;;;;5071519;28;20198;-75
2022/05/05 06:20:02;;;;;;;9.25;6.90;;;12.80;99.90;;;;;;5071262;28;20306;-75
2022/05/05 06:22:30;;;;;;;12.52;6.75;;;12.80;99.90;;;;;;5071503;28;20243;-77
2022/05/05 06:24:58;;;;;;;9.13;6.80;;;12.80;99.90;;;;;;5071496;28;20252;-76
2022/05/05 06:27:25;;;;;;;8.82;6.55;;;12.80;99.90;;;;;;5071308;28;20207;-76
2022/05/05 06:29:52;;;;;;;9.65;7.15;;;12.80;99.90;;;;;;5071599;28;20203;-77
2022/05/05 06:32:19;;;;;;;10.00;5.90;;;12.80;99.90;;;;;;5070861;28;20259;-77
2022/05/05 06:34:46;;;;;;;6.68;6.00;;;12.90;99.90;;;;;;5057541;28;20206;-75
2022/05/05 06:37:13;;;;;;;9.02;7.28;;;13.00;99.90;;;;;;5070997;28;20267;-76
2022/05/05 06:39:42;;;;;;;9.63;7.50;;;13.00;99.90;;;;;;5070715;28;20294;-76
2022/05/05 06:42:09;;;;;;;6.88;6.03;;;13.00;99.90;;;;;;5071016;28;20218;-77
2022/05/05 06:44:36;;;;;;;10.52;6.57;;;13.10;99.90;;;;;;5071146;28;20244;-76
2022/05/05 06:47:04;;;;;;;9.45;6.60;;;13.20;99.90;;;;;;5070510;28;20199;-76
2022/05/05 06:49:32;;;;;;;10.05;6.22;;;13.30;99.90;;;;;;5070839;28;20214;-75
2022/05/05 06:51:59;;;;;;;9.20;7.15;;;13.50;99.90;;;;;;5071000;28;20297;-74
2022/05/05 06:54:26;;;;;;;7.28;6.55;;;13.60;99.90;;;;;;5071298;28;20202;-72
2022/05/05 06:56:56;;;;;;;6.60;5.95;;;13.80;99.90;;;;;;5071607;28;20202;-76
2022/05/05 06:59:24;;;;;;;7.47;6.55;;;13.70;99.90;;;;;;5070927;28;20716;-76
2022/05/05 07:01:56;;;;;;;6.57;5.57;;;13.90;99.90;;;;;;5071294;28;20669;-79
2022/05/05 07:07:11;;;;;;;7.63;5.88;;;13.90;99.90;;;;;;5070684;28;20209;-76
2022/05/05 07:12:24;;;;;;;9.43;6.72;;;14.10;99.90;;;;;;5060542;28;20217;-76
2022/05/05 07:14:51;;;;;;;9.15;6.72;;;14.30;99.90;;;;;;5070643;28;20211;-73
2022/05/05 07:17:18;;;;;;;20.75;8.52;;;14.20;99.90;;;;;;5059230;28;20606;-74
2022/05/05 07:19:46;;;;;;;18.02;9.10;;;14.30;99.90;;;;;;5055165;28;20222;-74
2022/05/05 07:22:13;;;;;;;11.80;7.38;;;14.30;99.90;;;;;;5053893;28;20654;-74
2022/05/05 07:24:40;;;;;;;10.02;7.75;;;14.50;99.90;;;;;;5057002;28;20210;-72
2022/05/05 07:27:07;;;;;;;10.48;7.75;;;14.60;99.90;;;;;;5058388;28;20203;-74
2022/05/05 07:29:35;;;;;;;9.27;7.57;;;14.70;99.90;;;;;;5053222;28;20213;-74
2022/05/05 07:32:02;;;;;;;7.05;6.03;;;14.70;99.90;;;;;;5062107;28;20224;-72
2022/05/05 07:34:29;;;;;;;8.18;6.93;;;14.70;99.90;;;;;;5063508;28;20335;-72
2022/05/05 07:36:57;;;;;;;11.20;8.18;;;14.70;99.90;;;;;;5064353;28;20817;-72
2022/05/05 07:39:24;;;;;;;9.90;7.15;;;14.60;99.90;;;;;;5059000;28;20287;-77
2022/05/05 07:41:51;;;;;;;7.65;6.95;;;14.50;99.90;;;;;;5067472;28;20210;-73
2022/05/05 07:44:18;;;;;;;7.47;6.30;;;14.50;99.90;;;;;;5053546;28;20943;-73
2022/05/05 07:46:46;;;;;;;7.45;6.45;;;14.80;99.90;;;;;;5070016;28;20206;-73
2022/05/05 07:49:14;;;;;;;14.57;6.32;;;15.00;99.90;;;;;;5053395;28;20210;-73
2022/05/05 07:51:41;;;;;;;13.05;8.70;;;15.20;99.90;;;;;;5070533;28;20198;-73
2022/05/05 07:56:53;;;;;;;10.93;7.55;;;15.20;99.90;;;;;;5063898;28;20221;-74
2022/05/05 07:59:20;;;;;;;7.63;6.85;;;15.30;99.90;;;;;;5057849;28;20210;-74
2022/05/05 08:01:49;;;;;;;7.78;6.90;;;15.30;99.90;;;;;;5066840;28;20241;-73
2022/05/05 08:04:17;;;;;;;9.50;7.07;;;15.50;99.90;;;;;;5057123;28;20500;-75
2022/05/05 08:06:44;;;;;;;9.57;7.30;;;15.50;99.90;;;;;;5057175;28;20225;-75
2022/05/05 08:09:11;;;;;;;14.00;7.90;;;15.50;99.90;;;;;;5068570;28;20202;-74
2022/05/05 08:11:39;;;;;;;11.38;6.55;;;15.60;99.90;;;;;;5067707;28;20687;-74
2022/05/05 08:14:06;;;;;;;13.50;7.07;;;15.90;99.90;;;;;;5069675;28;20252;-75
2022/05/05 08:16:34;;;;;;;11.60;7.47;;;16.10;99.90;;;;;;5061595;28;20257;-76
2022/05/05 08:19:02;;;;;;;8.27;6.75;;;16.00;99.90;;;;;;5056839;28;20222;-77
2022/05/05 08:21:29;;;;;;;6.30;5.70;;;16.30;99.90;;;;;;5055088;28;20230;-78
2022/05/05 08:29:21;;;;;;;7.05;6.35;;;17.00;99.90;;;;;;5069596;28;20984;-75
2022/05/05 08:31:49;;;;;;;10.25;7.35;;;17.20;99.90;;;;;;5069222;28;20633;-74
2022/05/05 08:34:17;;;;;;;12.40;7.68;;;17.10;99.90;;;;;;5069259;28;20267;-75
2022/05/05 08:36:44;;;;;;;7.78;6.97;;;17.40;99.90;;;;;;5072504;28;20754;-74
2022/05/05 08:39:11;;;;;;;11.77;7.75;;;16.70;99.90;;;;;;5072548;28;20210;-74
2022/05/05 08:41:40;;;;;;;8.25;7.45;;;16.30;99.90;;;;;;5071775;28;20717;-74
2022/05/05 08:44:08;;;;;;;9.77;7.00;;;16.10;99.90;;;;;;5072917;28;20693;-78
2022/05/05 08:46:35;;;;;;;7.57;6.85;;;16.00;99.90;;;;;;5059448;28;20665;-76
2022/05/05 08:49:05;;;;;;;7.15;5.75;;;16.50;99.90;;;;;;5073206;28;20719;-75
2022/05/05 08:51:39;;;;;;;10.93;6.13;;;17.10;99.90;;;;;;5073307;28;20304;-75
2022/05/05 08:54:08;;;;;;;7.65;6.53;;;17.30;99.90;;;;;;5072801;28;20293;-75
2022/05/05 08:56:35;;;;;;;7.53;6.47;;;17.80;99.90;;;;;;5070868;28;20230;-77
2022/05/05 08:59:03;;;;;;;6.78;6.05;;;17.90;99.90;;;;;;5071836;28;20209;-74
2022/05/05 09:01:38;;;;;;;7.35;6.65;;;18.10;99.90;;;;;;5071376;28;20238;-77
2022/05/05 09:04:05;;;;;;;12.13;7.93;;;17.70;99.90;;;;;;5062343;28;20210;-77
2022/05/05 09:06:46;;;;;;;8.40;7.07;;;17.90;99.90;;;;;;5067201;28;20289;-79
2022/05/05 09:09:29;;;;;;;9.20;6.63;;;17.60;99.90;;;;;;5071682;28;20234;-75
2022/05/05 09:12:13;;;;;;;8.80;6.75;;;17.70;99.90;;;;;;5071023;28;20206;-76
2022/05/05 09:14:43;;;;;;;6.88;6.05;;;18.60;99.90;;;;;;5073104;28;20202;-77
2022/05/05 09:17:13;;;;;;;11.63;6.28;;;18.60;99.90;;;;;;5072162;28;20233;-77
2022/05/05 09:19:42;;;;;;;7.43;6.53;;;18.90;99.90;;;;;;5072889;28;20333;-76
2022/05/05 09:22:11;;;;;;;8.23;5.90;;;19.60;99.90;;;;;;5071309;28;20207;-77
2022/05/05 09:24:43;;;;;;;10.48;6.97;;;21.10;99.90;;;;;;5072879;28;20202;-75
2022/05/05 09:27:22;;;;;;;7.72;6.22;;;22.50;99.90;;;;;;5072225;28;20651;-78
2022/05/05 09:30:13;;;;;;;8.50;5.82;;;23.60;99.90;;;;;;5073216;28;20214;-77
2022/05/05 09:32:43;;;;;;;7.43;5.35;;;26.00;99.90;;;;;;5050265;28;20210;-78
2022/05/05 09:35:12;;;;;;;8.10;5.05;;;26.40;99.90;;;;;;5068913;28;20260;-74
2022/05/05 09:37:45;;;;;;;5.60;5.00;;;25.30;99.90;;;;;;5071315;28;20210;-75
2022/05/05 09:40:14;;;;;;;6.45;5.40;;;27.80;99.90;;;;;;5071891;28;20259;-74
2022/05/05 09:42:43;;;;;;;5.30;4.68;;;28.00;99.90;;;;;;5072111;28;20637;-75
2022/05/05 09:45:21;;;;;;;6.80;5.25;;;22.30;99.90;;;;;;5072120;28;20600;-74
2022/05/05 09:47:50;;;;;;;4.93;4.50;;;24.30;99.90;;;;;;5072344;28;20259;-76
2022/05/05 09:50:20;;;;;;;18.75;6.03;;;26.40;99.90;;;;;;5072130;28;20210;-77
2022/05/05 09:58:23;;;;;;;4.90;4.47;;;27.70;99.90;;;;;;5072020;28;20213;-78
2022/05/05 10:00:58;;;;;;;5.90;5.40;;;25.50;99.90;;;;;;5072274;28;20218;-79
2022/05/05 10:06:22;;;;;;;4.88;4.47;;;24.60;99.90;;;;;;5071591;28;20205;-77
2022/05/05 10:08:53;;;;;;;5.75;5.10;;;25.80;99.90;;;;;;5072023;28;20198;-75
2022/05/05 10:11:22;;;;;;;6.18;4.43;;;22.00;99.90;;;;;;5071523;28;20206;-75
2022/05/05 10:13:51;;;;;;;7.25;4.90;;;21.40;99.90;;;;;;5067790;28;20198;-78
2022/05/05 10:16:20;;;;;;;8.85;4.53;;;24.40;99.90;;;;;;5070733;28;20210;-76
2022/05/05 10:18:48;;;;;;;6.13;5.00;;;25.90;99.90;;;;;;5071037;28;20210;-76
2022/05/05 10:21:29;;;;;;;4.07;3.72;;;25.80;99.90;;;;;;5067817;28;20283;-75
2022/05/05 10:24:06;;;;;;;4.68;4.28;;;25.20;99.90;;;;;;5051577;28;20256;-77
2022/05/05 10:26:33;;;;;;;4.18;3.65;;;25.30;99.90;;;;;;5068588;28;20202;-76
2022/05/05 10:29:01;;;;;;;5.60;4.07;;;24.50;99.90;;;;;;5062183;28;20214;-76
2022/05/05 10:31:46;;;;;;;6.30;4.32;;;22.70;99.90;;;;;;5071511;28;20216;-76
2022/05/05 10:34:18;;;;;;;4.55;4.03;;;20.70;99.90;;;;;;5060253;28;20210;-77
2022/05/05 10:37:01;;;;;;;4.70;3.47;;;20.00;99.90;;;;;;5069035;28;20302;-77
2022/05/05 10:39:42;;;;;;;4.68;4.25;;;20.40;99.90;;;;;;5067477;28;20807;-77
2022/05/05 10:42:20;;;;;;;5.97;3.65;;;20.80;99.90;;;;;;5057858;28;20233;-76
2022/05/05 10:45:13;;;;;;;4.13;3.80;;;20.00;99.90;;;;;;5071346;28;20263;-74
2022/05/05 10:48:10;;;;;;;3.47;2.92;;;20.10;99.90;;;;;;5070801;28;20209;-74
2022/05/05 10:50:39;;;;;;;2.90;2.70;;;20.00;99.90;;;;;;5069541;28;20587;-76
2022/05/05 10:53:07;;;;;;;8.23;3.42;;;19.80;99.90;;;;;;5070849;28;20217;-75
2022/05/05 10:55:44;;;;;;;3.22;2.92;;;19.20;99.90;;;;;;5071294;28;20203;-75
2022/05/05 10:58:11;;;;;;;5.22;3.33;;;19.40;99.90;;;;;;5068614;28;20322;-76
2022/05/05 11:00:40;;;;;;;4.55;3.92;;;20.20;99.90;;;;;;5070991;28;20333;-75
2022/05/05 11:03:18;;;;;;;7.18;3.72;;;20.70;99.90;;;;;;5070610;28;20208;-75
2022/05/05 11:05:45;;;;;;;2.40;2.20;;;20.40;99.90;;;;;;5070819;28;20739;-76
2022/05/05 11:08:32;;;;;;;4.35;2.88;;;20.60;99.90;;;;;;5070811;28;20301;-80
2022/05/05 11:13:46;;;;;;;3.63;3.38;;;20.10;99.90;;;;;;5071317;28;20206;-79
2022/05/05 11:22:09;;;;;;;3.05;2.33;;;20.00;99.90;;;;;;5061869;28;20264;-79
2022/05/05 11:24:36;;;;;;;3.65;3.03;;;19.90;99.90;;;;;;5051227;28;20624;-81
2022/05/05 11:27:10;;;;;;;2.92;2.72;;;20.20;99.90;;;;;;5050901;28;20260;-80
2022/05/05 11:29:37;;;;;;;3.75;3.00;;;20.60;99.90;;;;;;5050859;28;20202;-83
2022/05/05 11:32:05;;;;;;;2.83;2.50;;;21.00;99.90;;;;;;5050935;28;20203;-83
2022/05/05 11:34:34;;;;;;;2.60;2.15;;;21.20;99.90;;;;;;5051119;28;20211;-77
2022/05/05 11:37:02;;;;;;;5.53;3.72;;;20.70;99.90;;;;;;5051047;28;20233;-81
2022/05/05 11:39:29;;;;;;;3.50;2.80;;;20.50;99.90;;;;;;5051190;28;20199;-76
2022/05/05 11:42:01;;;;;;;5.57;3.13;;;20.60;99.90;;;;;;5050911;28;20234;-79
2022/05/05 11:44:29;;;;;;;5.22;3.15;;;20.90;99.90;;;;;;5050747;28;20752;-78
2022/05/05 11:46:58;;;;;;;7.85;3.38;;;21.30;99.90;;;;;;5057324;28;20210;-81
2022/05/05 11:49:32;;;;;;;7.40;2.95;;;21.40;99.90;;;;;;5068582;28;20652;-81
2022/05/05 11:51:59;;;;;;;2.80;2.53;;;21.00;99.90;;;;;;5060536;28;20226;-77
2022/05/05 11:54:28;;;;;;;5.60;3.45;;;21.10;99.90;;;;;;5059364;28;20207;-75
2022/05/05 11:56:56;;;;;;;4.57;3.17;;;21.30;99.90;;;;;;5051276;28;20260;-81
2022/05/05 12:02:12;;;;;;;4.82;3.28;;;20.80;99.90;;;;;;5050279;28;20784;-75
2022/05/05 12:04:41;;;;;;;4.85;2.80;;;21.30;99.90;;;;;;5050551;28;20260;-79
2022/05/05 12:07:10;;;;;;;4.20;2.83;;;21.50;99.90;;;;;;5050588;28;20226;-77
2022/05/05 12:09:38;;;;;;;4.60;2.95;;;21.40;99.90;;;;;;5056208;28;20669;-75
2022/05/05 12:12:17;;;;;;;3.33;2.60;;;21.30;99.90;;;;;;5074104;28;20297;-79
2022/05/05 12:14:46;;;;;;;2.88;2.60;;;20.70;99.90;;;;;;5074800;28;20198;-80
2022/05/05 12:17:18;;;;;;;3.95;2.90;;;20.30;99.90;;;;;;5071347;28;20598;-80
2022/05/05 12:19:48;;;;;;;4.38;2.95;;;19.90;99.90;;;;;;5062096;28;20210;-79
2022/05/05 12:22:20;;;;;;;3.35;2.75;;;19.90;99.90;;;;;;5054018;28;20262;-76
2022/05/05 12:24:47;;;;;;;6.35;3.10;;;20.40;99.90;;;;;;5060731;28;20253;-77
2022/05/05 12:27:14;;;;;;;5.47;2.95;;;20.70;99.90;;;;;;5055676;28;20215;-86
2022/05/05 12:29:43;;;;;;;4.70;3.85;;;21.10;99.90;;;;;;5057185;28;20218;-87
2022/05/05 12:32:11;;;;;;;6.80;4.22;;;21.70;99.90;;;;;;5061853;28;20206;-76
2022/05/05 12:34:40;;;;;;;3.15;2.85;;;21.80;99.90;;;;;;5073968;28;20657;-77
2022/05/05 12:37:14;;;;;;;3.50;3.20;;;21.80;99.90;;;;;;5057439;28;20663;-77
2022/05/05 12:39:52;;;;;;;3.42;2.80;;;22.40;99.90;;;;;;5053970;28;20290;-78
2022/05/05 12:42:21;;;;;;;3.60;3.10;;;22.10;99.90;;;;;;5053284;28;20276;-75
2022/05/05 12:44:50;;;;;;;4.93;3.25;;;22.10;99.90;;;;;;5054180;28;20210;-77
2022/05/05 12:47:24;;;;;;;3.60;3.20;;;22.10;99.90;;;;;;5053346;28;20214;-78
2022/05/05 12:49:52;;;;;;;11.48;5.57;;;21.80;99.90;;;;;;5054626;28;20245;-77
2022/05/05 13:01:00;;;;;;;3.13;2.67;;;20.50;99.90;;;;;;5011526;28;20316;-77
2022/05/05 13:03:27;;;;;;;3.40;2.90;;;20.60;99.90;;;;;;5046698;28;20259;-76
2022/05/05 13:05:56;;;;;;;4.63;3.40;;;20.80;99.90;;;;;;5073773;28;20251;-77
2022/05/05 13:08:23;;;;;;;4.68;2.55;;;21.20;99.90;;;;;;5071983;28;20290;-77
2022/05/05 13:10:50;;;;;;;5.22;2.60;;;21.00;99.90;;;;;;5072813;28;20214;-79
2022/05/05 13:13:17;;;;;;;3.97;2.53;;;20.30;99.90;;;;;;5072921;28;20717;-79
2022/05/05 13:15:44;;;;;;;4.82;2.80;;;20.20;99.90;;;;;;5073030;28;20256;-77
2022/05/05 13:18:10;;;;;;;4.63;2.72;;;20.20;99.90;;;;;;5072829;28;20661;-77
2022/05/05 13:20:41;;;;;;;9.95;4.38;;;20.30;99.90;;;;;;5073380;28;20202;-76
2022/05/05 13:23:09;;;;;;;3.17;2.22;;;20.40;99.90;;;;;;5072674;28;20285;-77
2022/05/05 13:25:39;;;;;;;4.28;3.00;;;20.40;99.90;;;;;;5073225;28;20202;-77
2022/05/05 13:28:07;;;;;;;5.10;2.90;;;20.50;99.90;;;;;;5072669;28;20746;-76
2022/05/05 13:30:34;;;;;;;3.10;2.20;;;20.60;99.90;;;;;;5072716;28;20202;-80
2022/05/05 13:33:02;;;;;;;4.40;2.58;;;20.40;99.90;;;;;;5072683;28;20630;-79
2022/05/05 13:35:30;;;;;;;8.02;2.80;;;20.40;99.90;;;;;;5073099;28;20203;-77
2022/05/05 13:37:58;;;;;;;3.78;2.35;;;20.20;99.90;;;;;;5072806;28;20736;-77
2022/05/05 13:40:27;;;;;;;3.15;2.20;;;20.10;99.90;;;;;;5072985;28;20594;-78
2022/05/05 13:42:55;;;;;;;3.60;2.33;;;20.10;99.90;;;;;;5070927;28;20229;-77
2022/05/05 13:45:22;;;;;;;3.00;2.80;;;20.10;99.90;;;;;;5052363;28;20686;-82
2022/05/05 13:47:50;;;;;;;2.97;2.35;;;19.90;99.90;;;;;;5068297;28;20271;-74
2022/05/05 13:50:17;;;;;;;7.22;2.22;;;19.80;99.90;;;;;;5053399;28;20294;-76